sensor_id;sensor_type;location;lat;lon;timestamp;temperature;humidity
35678;DHT22;21791;42.828;74.582;2023-03-14T00:00:13;4.40;99.90
35678;DHT22;21791;42.828;74.582;2023-03-14T00:02:40;4.50;99.90
35678;DHT22;21791;42.828;74.582;2023-03-14T00:05:07;4.60;99.90
35678;DHT22;21791;42.828;74.582;2023-03-14T00:07:38;4.50;99.90
35678;DHT22;21791;42.828;74.582;2023-03-14T00:10:07;4.50;99.90
35678;DHT22;21791;42.828;74.582;2023-03-14T00:12:34;4.40;99.90
35678;DHT22;21791;42.828;74.582;2023-03-14T00:15:01;4.40;99.90
35678;DHT22;21791;42.828;74.582;2023-03-14T00:17:30;4.20;99.90
35678;DHT22;21791;42.828;74.582;2023-03-14T00:19:57;4.10;99.90
35678;DHT22;21791;42.828;74.582;2023-03-14T00:22:31;4.10;99.90
35678;DHT22;21791;42.828;74.582;2023-03-14T00:25:00;4.00;99.90
35678;DHT22;21791;42.828;74.582;2023-03-14T00:27:26;3.90;99.90
35678;DHT22;21791;42.828;74.582;2023-03-14T00:29:53;3.80;99.90
35678;DHT22;21791;42.828;74.582;2023-03-14T00:32:19;3.60;99.90
35678;DHT22;21791;42.828;74.582;2023-03-14T00:34:46;3.60;99.90
35678;DHT22;21791;42.828;74.582;2023-03-14T00:37:12;3.50;99.90
35678;DHT22;21791;42.828;74.582;2023-03-14T00:39:38;3.40;99.90
35678;DHT22;21791;42.828;74.582;2023-03-14T00:42:05;3.30;99.90
35678;DHT22;21791;42.828;74.582;2023-03-14T00:44:31;3.20;99.90
35678;DHT22;21791;42.828;74.582;2023-03-14T00:46:57;2.90;99.90
35678;DHT22;21791;42.828;74.582;2023-03-14T00:49:24;2.70;99.90
35678;DHT22;21791;42.828;74.582;2023-03-14T00:51:51;2.50;99.90
35678;DHT22;21791;42.828;74.582;2023-03-14T00:54:18;2.60;99.90
35678;DHT22;21791;42.828;74.582;2023-03-14T00:56:45;2.70;99.90
35678;DHT22;21791;42.828;74.582;2023-03-14T00:59:11;2.60;99.90
35678;DHT22;21791;42.828;74.582;2023-03-14T01:01:39;2.70;99.90
35678;DHT22;21791;42.828;74.582;2023-03-14T01:04:05;3.00;99.90
35678;DHT22;21791;42.828;74.582;2023-03-14T01:06:32;3.30;99.90
35678;DHT22;21791;42.828;74.582;2023-03-14T01:08:59;3.50;99.90
35678;DHT22;21791;42.828;74.582;2023-03-14T01:11:30;3.50;99.90
35678;DHT22;21791;42.828;74.582;2023-03-14T01:13:57;3.50;99.90
35678;DHT22;21791;42.828;74.582;2023-03-14T01:16:25;3.60;99.90
35678;DHT22;21791;42.828;74.582;2023-03-14T01:18:53;3.50;99.90
35678;DHT22;21791;42.828;74.582;2023-03-14T01:21:28;3.20;99.90
35678;DHT22;21791;42.828;74.582;2023-03-14T01:23:56;3.20;99.90
35678;DHT22;21791;42.828;74.582;2023-03-14T01:26:24;3.10;99.90
35678;DHT22;21791;42.828;74.582;2023-03-14T01:28:53;3.10;99.90
35678;DHT22;21791;42.828;74.582;2023-03-14T01:31:19;3.00;99.90
35678;DHT22;21791;42.828;74.582;2023-03-14T01:33:46;2.90;99.90
35678;DHT22;21791;42.828;74.582;2023-03-14T01:36:13;2.80;99.90
35678;DHT22;21791;42.828;74.582;2023-03-14T01:38:40;2.70;99.90
35678;DHT22;21791;42.828;74.582;2023-03-14T01:41:08;2.70;99.90
35678;DHT22;21791;42.828;74.582;2023-03-14T01:43:38;2.80;99.90
35678;DHT22;21791;42.828;74.582;2023-03-14T01:51:25;2.90;99.90
35678;DHT22;21791;42.828;74.582;2023-03-14T01:53:57;3.00;99.90
35678;DHT22;21791;42.828;74.582;2023-03-14T01:56:26;3.50;99.90
35678;DHT22;21791;42.828;74.582;2023-03-14T01:58:53;3.90;99.90
35678;DHT22;21791;42.828;74.582;2023-03-14T02:01:25;4.20;99.90
35678;DHT22;21791;42.828;74.582;2023-03-14T02:03:56;4.50;99.90
35678;DHT22;21791;42.828;74.582;2023-03-14T02:06:29;5.00;99.90
35678;DHT22;21791;42.828;74.582;2023-03-14T02:08:57;5.50;99.90
35678;DHT22;21791;42.828;74.582;2023-03-14T02:11:28;5.80;99.90
35678;DHT22;21791;42.828;74.582;2023-03-14T02:13:58;6.20;99.90
35678;DHT22;21791;42.828;74.582;2023-03-14T02:16:25;6.60;99.90
35678;DHT22;21791;42.828;74.582;2023-03-14T02:18:52;7.00;99.90
35678;DHT22;21791;42.828;74.582;2023-03-14T02:21:49;7.20;99.90
35678;DHT22;21791;42.828;74.582;2023-03-14T02:24:34;7.70;99.90
35678;DHT22;21791;42.828;74.582;2023-03-14T02:29:44;8.50;99.90
35678;DHT22;21791;42.828;74.582;2023-03-14T02:32:12;8.70;99.90
35678;DHT22;21791;42.828;74.582;2023-03-14T02:34:40;9.00;99.90
35678;DHT22;21791;42.828;74.582;2023-03-14T02:37:09;8.90;99.90
35678;DHT22;21791;42.828;74.582;2023-03-14T02:39:39;9.40;99.90
35678;DHT22;21791;42.828;74.582;2023-03-14T02:42:05;9.70;99.90
35678;DHT22;21791;42.828;74.582;2023-03-14T02:44:32;10.10;99.90
35678;DHT22;21791;42.828;74.582;2023-03-14T02:46:59;10.00;99.90
35678;DHT22;21791;42.828;74.582;2023-03-14T02:49:27;10.10;99.90
35678;DHT22;21791;42.828;74.582;2023-03-14T02:51:55;10.60;99.90
35678;DHT22;21791;42.828;74.582;2023-03-14T02:54:22;11.00;99.90
35678;DHT22;21791;42.828;74.582;2023-03-14T02:56:48;11.70;99.90
35678;DHT22;21791;42.828;74.582;2023-03-14T02:59:15;11.80;99.90
35678;DHT22;21791;42.828;74.582;2023-03-14T03:01:41;12.20;99.90
35678;DHT22;21791;42.828;74.582;2023-03-14T03:04:08;12.40;99.90
35678;DHT22;21791;42.828;74.582;2023-03-14T03:06:34;13.00;99.90
35678;DHT22;21791;42.828;74.582;2023-03-14T03:09:01;13.50;99.90
35678;DHT22;21791;42.828;74.582;2023-03-14T03:11:28;13.40;99.90
35678;DHT22;21791;42.828;74.582;2023-03-14T03:13:54;13.90;99.90
35678;DHT22;21791;42.828;74.582;2023-03-14T03:16:20;13.60;99.90
35678;DHT22;21791;42.828;74.582;2023-03-14T03:18:47;13.00;99.90
35678;DHT22;21791;42.828;74.582;2023-03-14T03:21:14;12.70;99.90
35678;DHT22;21791;42.828;74.582;2023-03-14T03:23:40;12.90;99.90
35678;DHT22;21791;42.828;74.582;2023-03-14T03:26:09;13.90;99.90
35678;DHT22;21791;42.828;74.582;2023-03-14T03:28:36;14.00;99.90
35678;DHT22;21791;42.828;74.582;2023-03-14T03:31:10;14.10;99.90
35678;DHT22;21791;42.828;74.582;2023-03-14T03:33:38;14.00;99.90
35678;DHT22;21791;42.828;74.582;2023-03-14T03:36:05;14.40;99.90
35678;DHT22;21791;42.828;74.582;2023-03-14T03:38:31;14.70;99.90
35678;DHT22;21791;42.828;74.582;2023-03-14T03:40:58;14.10;99.90
35678;DHT22;21791;42.828;74.582;2023-03-14T03:43:33;13.80;99.90
35678;DHT22;21791;42.828;74.582;2023-03-14T03:46:06;14.00;99.90
35678;DHT22;21791;42.828;74.582;2023-03-14T03:48:33;13.60;99.90
35678;DHT22;21791;42.828;74.582;2023-03-14T03:51:00;13.30;99.90
35678;DHT22;21791;42.828;74.582;2023-03-14T03:53:28;13.10;99.90
35678;DHT22;21791;42.828;74.582;2023-03-14T03:55:54;13.80;99.90
35678;DHT22;21791;42.828;74.582;2023-03-14T03:58:21;13.60;99.90
35678;DHT22;21791;42.828;74.582;2023-03-14T04:00:48;14.00;99.90
35678;DHT22;21791;42.828;74.582;2023-03-14T04:03:14;14.10;99.90
35678;DHT22;21791;42.828;74.582;2023-03-14T04:05:41;13.20;99.90
35678;DHT22;21791;42.828;74.582;2023-03-14T04:08:07;14.00;99.90
35678;DHT22;21791;42.828;74.582;2023-03-14T04:10:35;13.80;99.90
35678;DHT22;21791;42.828;74.582;2023-03-14T04:13:02;13.60;99.90
35678;DHT22;21791;42.828;74.582;2023-03-14T04:15:28;12.50;99.90
35678;DHT22;21791;42.828;74.582;2023-03-14T04:17:58;13.30;99.90
35678;DHT22;21791;42.828;74.582;2023-03-14T04:20:25;13.90;99.90
35678;DHT22;21791;42.828;74.582;2023-03-14T04:22:52;13.10;99.90
35678;DHT22;21791;42.828;74.582;2023-03-14T04:25:18;13.70;99.90
35678;DHT22;21791;42.828;74.582;2023-03-14T04:27:46;13.90;99.90
35678;DHT22;21791;42.828;74.582;2023-03-14T04:30:13;13.60;99.90
35678;DHT22;21791;42.828;74.582;2023-03-14T04:32:43;13.20;99.90
35678;DHT22;21791;42.828;74.582;2023-03-14T04:35:09;13.70;99.90
35678;DHT22;21791;42.828;74.582;2023-03-14T04:37:35;13.80;99.90
35678;DHT22;21791;42.828;74.582;2023-03-14T04:40:03;13.90;99.90
35678;DHT22;21791;42.828;74.582;2023-03-14T04:42:32;13.40;99.90
35678;DHT22;21791;42.828;74.582;2023-03-14T04:44:58;13.50;99.90
35678;DHT22;21791;42.828;74.582;2023-03-14T04:47:26;14.00;99.90
35678;DHT22;21791;42.828;74.582;2023-03-14T04:49:53;14.00;99.90
35678;DHT22;21791;42.828;74.582;2023-03-14T04:52:19;13.10;99.90
35678;DHT22;21791;42.828;74.582;2023-03-14T04:54:46;14.00;99.90
35678;DHT22;21791;42.828;74.582;2023-03-14T04:57:12;13.60;99.90
35678;DHT22;21791;42.828;74.582;2023-03-14T04:59:39;13.40;99.90
35678;DHT22;21791;42.828;74.582;2023-03-14T05:02:06;14.20;99.90
35678;DHT22;21791;42.828;74.582;2023-03-14T05:04:32;14.00;99.90
35678;DHT22;21791;42.828;74.582;2023-03-14T05:07:00;13.60;99.90
35678;DHT22;21791;42.828;74.582;2023-03-14T05:09:27;14.10;99.90
35678;DHT22;21791;42.828;74.582;2023-03-14T05:11:54;14.80;99.90
35678;DHT22;21791;42.828;74.582;2023-03-14T05:14:20;14.80;99.90
35678;DHT22;21791;42.828;74.582;2023-03-14T05:16:46;14.70;99.90
35678;DHT22;21791;42.828;74.582;2023-03-14T05:19:13;14.20;99.90
35678;DHT22;21791;42.828;74.582;2023-03-14T05:21:39;15.20;99.90
35678;DHT22;21791;42.828;74.582;2023-03-14T05:24:06;15.20;99.90
35678;DHT22;21791;42.828;74.582;2023-03-14T05:26:33;15.30;99.90
35678;DHT22;21791;42.828;74.582;2023-03-14T05:28:59;15.40;99.90
35678;DHT22;21791;42.828;74.582;2023-03-14T05:31:25;15.30;99.90
35678;DHT22;21791;42.828;74.582;2023-03-14T05:33:52;14.10;99.90
35678;DHT22;21791;42.828;74.582;2023-03-14T05:36:19;13.10;99.90
35678;DHT22;21791;42.828;74.582;2023-03-14T05:38:45;13.60;99.90
35678;DHT22;21791;42.828;74.582;2023-03-14T05:41:12;14.30;99.90
35678;DHT22;21791;42.828;74.582;2023-03-14T05:43:38;14.90;99.90
35678;DHT22;21791;42.828;74.582;2023-03-14T05:46:05;15.30;99.90
35678;DHT22;21791;42.828;74.582;2023-03-14T05:48:32;15.60;99.90
35678;DHT22;21791;42.828;74.582;2023-03-14T05:50:58;15.50;99.90
35678;DHT22;21791;42.828;74.582;2023-03-14T05:53:28;15.30;99.90
35678;DHT22;21791;42.828;74.582;2023-03-14T05:55:55;15.50;99.90
35678;DHT22;21791;42.828;74.582;2023-03-14T05:58:22;15.60;99.90
35678;DHT22;21791;42.828;74.582;2023-03-14T06:00:49;16.10;99.90
35678;DHT22;21791;42.828;74.582;2023-03-14T06:03:15;16.60;99.90
35678;DHT22;21791;42.828;74.582;2023-03-14T06:05:42;16.60;99.90
35678;DHT22;21791;42.828;74.582;2023-03-14T06:08:08;16.30;98.50
35678;DHT22;21791;42.828;74.582;2023-03-14T06:10:36;16.30;99.90
35678;DHT22;21791;42.828;74.582;2023-03-14T06:13:03;16.20;99.90
35678;DHT22;21791;42.828;74.582;2023-03-14T06:15:29;16.40;99.90
35678;DHT22;21791;42.828;74.582;2023-03-14T06:17:56;16.40;97.70
35678;DHT22;21791;42.828;74.582;2023-03-14T06:20:22;15.30;99.90
35678;DHT22;21791;42.828;74.582;2023-03-14T06:22:49;15.50;98.70
35678;DHT22;21791;42.828;74.582;2023-03-14T06:25:16;15.50;99.00
35678;DHT22;21791;42.828;74.582;2023-03-14T06:27:42;15.90;97.30
35678;DHT22;21791;42.828;74.582;2023-03-14T06:30:09;15.40;95.90
35678;DHT22;21791;42.828;74.582;2023-03-14T06:32:36;15.10;98.40
35678;DHT22;21791;42.828;74.582;2023-03-14T06:35:02;15.00;96.60
35678;DHT22;21791;42.828;74.582;2023-03-14T06:37:29;15.50;99.90
35678;DHT22;21791;42.828;74.582;2023-03-14T06:39:56;16.20;94.90
35678;DHT22;21791;42.828;74.582;2023-03-14T06:42:25;16.50;91.30
35678;DHT22;21791;42.828;74.582;2023-03-14T06:44:52;16.10;91.10
35678;DHT22;21791;42.828;74.582;2023-03-14T06:47:18;16.40;91.00
35678;DHT22;21791;42.828;74.582;2023-03-14T06:49:44;16.70;90.20
35678;DHT22;21791;42.828;74.582;2023-03-14T06:52:11;16.90;90.80
35678;DHT22;21791;42.828;74.582;2023-03-14T06:54:37;17.40;73.10
35678;DHT22;21791;42.828;74.582;2023-03-14T06:57:04;16.50;63.90
35678;DHT22;21791;42.828;74.582;2023-03-14T06:59:30;16.20;60.60
35678;DHT22;21791;42.828;74.582;2023-03-14T07:01:57;15.60;65.30
35678;DHT22;21791;42.828;74.582;2023-03-14T07:04:23;15.80;65.30
35678;DHT22;21791;42.828;74.582;2023-03-14T07:06:52;16.10;62.50
35678;DHT22;21791;42.828;74.582;2023-03-14T07:09:18;16.40;67.40
35678;DHT22;21791;42.828;74.582;2023-03-14T07:11:45;15.90;68.90
35678;DHT22;21791;42.828;74.582;2023-03-14T07:14:11;15.70;79.50
35678;DHT22;21791;42.828;74.582;2023-03-14T07:16:38;16.00;79.80
35678;DHT22;21791;42.828;74.582;2023-03-14T07:19:04;16.80;84.80
35678;DHT22;21791;42.828;74.582;2023-03-14T07:21:31;17.30;73.80
35678;DHT22;21791;42.828;74.582;2023-03-14T07:23:58;16.90;78.60
35678;DHT22;21791;42.828;74.582;2023-03-14T07:26:24;16.90;80.00
35678;DHT22;21791;42.828;74.582;2023-03-14T07:28:51;16.30;82.80
35678;DHT22;21791;42.828;74.582;2023-03-14T07:31:18;15.80;90.20
35678;DHT22;21791;42.828;74.582;2023-03-14T07:33:45;15.50;88.40
35678;DHT22;21791;42.828;74.582;2023-03-14T07:36:11;15.60;94.50
35678;DHT22;21791;42.828;74.582;2023-03-14T07:38:38;15.90;91.90
35678;DHT22;21791;42.828;74.582;2023-03-14T07:41:06;16.30;88.70
35678;DHT22;21791;42.828;74.582;2023-03-14T07:43:33;16.40;85.30
35678;DHT22;21791;42.828;74.582;2023-03-14T07:45:59;16.50;85.10
35678;DHT22;21791;42.828;74.582;2023-03-14T07:48:26;16.20;84.40
35678;DHT22;21791;42.828;74.582;2023-03-14T07:50:53;16.70;85.40
35678;DHT22;21791;42.828;74.582;2023-03-14T07:53:21;15.80;85.20
35678;DHT22;21791;42.828;74.582;2023-03-14T07:55:49;15.50;85.80
35678;DHT22;21791;42.828;74.582;2023-03-14T07:58:16;15.80;85.10
35678;DHT22;21791;42.828;74.582;2023-03-14T08:00:43;15.60;84.60
35678;DHT22;21791;42.828;74.582;2023-03-14T08:03:10;15.60;82.00
35678;DHT22;21791;42.828;74.582;2023-03-14T08:05:38;15.80;83.20
35678;DHT22;21791;42.828;74.582;2023-03-14T08:08:05;15.70;82.10
35678;DHT22;21791;42.828;74.582;2023-03-14T08:10:32;15.80;77.40
35678;DHT22;21791;42.828;74.582;2023-03-14T08:13:00;16.20;78.40
35678;DHT22;21791;42.828;74.582;2023-03-14T08:15:27;16.30;79.00
35678;DHT22;21791;42.828;74.582;2023-03-14T08:17:54;16.10;71.60
35678;DHT22;21791;42.828;74.582;2023-03-14T08:20:22;16.20;70.90
35678;DHT22;21791;42.828;74.582;2023-03-14T08:22:49;16.50;69.20
35678;DHT22;21791;42.828;74.582;2023-03-14T08:25:16;16.70;69.60
35678;DHT22;21791;42.828;74.582;2023-03-14T08:27:43;16.50;66.20
35678;DHT22;21791;42.828;74.582;2023-03-14T08:30:11;16.60;69.90
35678;DHT22;21791;42.828;74.582;2023-03-14T08:32:38;15.60;65.70
35678;DHT22;21791;42.828;74.582;2023-03-14T08:35:06;15.50;65.30
35678;DHT22;21791;42.828;74.582;2023-03-14T08:37:35;16.00;68.60
35678;DHT22;21791;42.828;74.582;2023-03-14T08:40:04;16.40;73.30
35678;DHT22;21791;42.828;74.582;2023-03-14T08:42:36;16.00;71.00
35678;DHT22;21791;42.828;74.582;2023-03-14T08:45:03;15.50;70.10
35678;DHT22;21791;42.828;74.582;2023-03-14T08:47:30;15.70;77.50
35678;DHT22;21791;42.828;74.582;2023-03-14T08:49:56;15.40;75.30
35678;DHT22;21791;42.828;74.582;2023-03-14T08:52:23;15.30;75.60
35678;DHT22;21791;42.828;74.582;2023-03-14T08:54:49;15.60;75.00
35678;DHT22;21791;42.828;74.582;2023-03-14T08:57:15;16.40;77.40
35678;DHT22;21791;42.828;74.582;2023-03-14T08:59:42;16.10;73.10
35678;DHT22;21791;42.828;74.582;2023-03-14T09:02:12;15.60;73.60
35678;DHT22;21791;42.828;74.582;2023-03-14T09:04:38;14.90;78.10
35678;DHT22;21791;42.828;74.582;2023-03-14T09:07:05;14.90;76.30
35678;DHT22;21791;42.828;74.582;2023-03-14T09:09:32;15.10;74.50
35678;DHT22;21791;42.828;74.582;2023-03-14T09:11:59;15.40;75.90
35678;DHT22;21791;42.828;74.582;2023-03-14T09:14:25;14.90;78.80
35678;DHT22;21791;42.828;74.582;2023-03-14T09:16:52;15.60;78.90
35678;DHT22;21791;42.828;74.582;2023-03-14T09:19:18;15.20;77.60
35678;DHT22;21791;42.828;74.582;2023-03-14T09:21:45;15.30;80.30
35678;DHT22;21791;42.828;74.582;2023-03-14T09:24:12;15.90;75.30
35678;DHT22;21791;42.828;74.582;2023-03-14T09:26:38;15.80;76.90
35678;DHT22;21791;42.828;74.582;2023-03-14T09:29:05;15.40;79.10
35678;DHT22;21791;42.828;74.582;2023-03-14T09:31:31;15.50;76.60
35678;DHT22;21791;42.828;74.582;2023-03-14T09:33:58;15.10;81.80
35678;DHT22;21791;42.828;74.582;2023-03-14T09:36:24;15.20;81.20
35678;DHT22;21791;42.828;74.582;2023-03-14T09:39:00;15.10;79.10
35678;DHT22;21791;42.828;74.582;2023-03-14T09:41:27;15.60;80.20
35678;DHT22;21791;42.828;74.582;2023-03-14T09:46:38;15.50;80.00
35678;DHT22;21791;42.828;74.582;2023-03-14T09:49:17;15.20;82.80
35678;DHT22;21791;42.828;74.582;2023-03-14T09:51:47;15.20;78.60
35678;DHT22;21791;42.828;74.582;2023-03-14T09:54:33;15.30;81.80
35678;DHT22;21791;42.828;74.582;2023-03-14T09:57:00;15.60;85.80
35678;DHT22;21791;42.828;74.582;2023-03-14T09:59:28;15.60;84.80
35678;DHT22;21791;42.828;74.582;2023-03-14T10:02:00;15.40;84.90
35678;DHT22;21791;42.828;74.582;2023-03-14T10:04:28;15.60;85.30
35678;DHT22;21791;42.828;74.582;2023-03-14T10:06:56;15.30;84.60
35678;DHT22;21791;42.828;74.582;2023-03-14T10:09:24;15.40;87.90
35678;DHT22;21791;42.828;74.582;2023-03-14T10:11:56;15.40;83.90
35678;DHT22;21791;42.828;74.582;2023-03-14T10:14:33;15.70;84.90
35678;DHT22;21791;42.828;74.582;2023-03-14T10:17:11;15.90;88.40
35678;DHT22;21791;42.828;74.582;2023-03-14T10:19:58;15.70;90.10
35678;DHT22;21791;42.828;74.582;2023-03-14T10:22:30;15.30;92.00
35678;DHT22;21791;42.828;74.582;2023-03-14T10:25:01;15.70;92.20
35678;DHT22;21791;42.828;74.582;2023-03-14T10:27:33;16.00;91.30
35678;DHT22;21791;42.828;74.582;2023-03-14T10:30:03;15.60;90.30
35678;DHT22;21791;42.828;74.582;2023-03-14T10:32:38;15.90;90.00
35678;DHT22;21791;42.828;74.582;2023-03-14T10:37:57;15.20;93.30
35678;DHT22;21791;42.828;74.582;2023-03-14T10:40:37;15.20;94.60
35678;DHT22;21791;42.828;74.582;2023-03-14T10:43:12;15.30;92.00
35678;DHT22;21791;42.828;74.582;2023-03-14T10:45:41;15.00;91.40
35678;DHT22;21791;42.828;74.582;2023-03-14T10:48:18;15.30;93.60
35678;DHT22;21791;42.828;74.582;2023-03-14T10:51:17;15.50;93.00
35678;DHT22;21791;42.828;74.582;2023-03-14T10:56:22;14.90;95.80
35678;DHT22;21791;42.828;74.582;2023-03-14T10:58:58;14.40;96.40
35678;DHT22;21791;42.828;74.582;2023-03-14T11:09:45;14.30;99.00
35678;DHT22;21791;42.828;74.582;2023-03-14T11:14:59;13.90;99.60
35678;DHT22;21791;42.828;74.582;2023-03-14T11:17:34;13.70;99.20
35678;DHT22;21791;42.828;74.582;2023-03-14T11:22:51;13.10;99.90
35678;DHT22;21791;42.828;74.582;2023-03-14T11:36:07;12.60;99.90
35678;DHT22;21791;42.828;74.582;2023-03-14T11:38:58;12.60;99.90
35678;DHT22;21791;42.828;74.582;2023-03-14T11:41:40;12.60;99.90
35678;DHT22;21791;42.828;74.582;2023-03-14T11:44:32;12.60;99.90
35678;DHT22;21791;42.828;74.582;2023-03-14T11:50:02;12.50;99.90
35678;DHT22;21791;42.828;74.582;2023-03-14T11:52:37;12.50;99.90
35678;DHT22;21791;42.828;74.582;2023-03-14T11:55:35;12.50;99.90
35678;DHT22;21791;42.828;74.582;2023-03-14T12:00:38;12.40;99.90
35678;DHT22;21791;42.828;74.582;2023-03-14T12:03:29;12.40;99.90
35678;DHT22;21791;42.828;74.582;2023-03-14T12:06:17;12.40;99.90
35678;DHT22;21791;42.828;74.582;2023-03-14T12:08:59;12.30;99.90
35678;DHT22;21791;42.828;74.582;2023-03-14T12:11:51;12.20;99.90
35678;DHT22;21791;42.828;74.582;2023-03-14T12:14:28;12.20;99.90
35678;DHT22;21791;42.828;74.582;2023-03-14T12:17:05;12.10;99.90
35678;DHT22;21791;42.828;74.582;2023-03-14T12:19:37;12.10;99.90
35678;DHT22;21791;42.828;74.582;2023-03-14T12:22:23;12.00;99.90
35678;DHT22;21791;42.828;74.582;2023-03-14T12:24:58;12.00;99.90
35678;DHT22;21791;42.828;74.582;2023-03-14T12:27:48;12.00;99.90
35678;DHT22;21791;42.828;74.582;2023-03-14T12:30:41;11.90;99.90
35678;DHT22;21791;42.828;74.582;2023-03-14T12:35:45;11.70;99.90
35678;DHT22;21791;42.828;74.582;2023-03-14T12:43:38;11.50;99.90
35678;DHT22;21791;42.828;74.582;2023-03-14T12:49:09;11.30;99.90
35678;DHT22;21791;42.828;74.582;2023-03-14T12:51:42;11.30;99.90
35678;DHT22;21791;42.828;74.582;2023-03-14T12:59:42;10.90;99.90
35678;DHT22;21791;42.828;74.582;2023-03-14T13:04:52;10.70;99.90
35678;DHT22;21791;42.828;74.582;2023-03-14T13:07:35;10.50;99.90
35678;DHT22;21791;42.828;74.582;2023-03-14T13:13:23;10.40;99.90
35678;DHT22;21791;42.828;74.582;2023-03-14T13:15:44;10.30;99.90
35678;DHT22;21791;42.828;74.582;2023-03-14T13:18:18;10.20;99.90
35678;DHT22;21791;42.828;74.582;2023-03-14T13:21:22;10.00;99.90
35678;DHT22;21791;42.828;74.582;2023-03-14T13:23:59;9.90;99.90
35678;DHT22;21791;42.828;74.582;2023-03-14T13:26:36;9.80;99.90
35678;DHT22;21791;42.828;74.582;2023-03-14T13:29:18;9.70;99.90
35678;DHT22;21791;42.828;74.582;2023-03-14T13:31:47;9.70;99.90
35678;DHT22;21791;42.828;74.582;2023-03-14T13:34:14;9.40;99.90
35678;DHT22;21791;42.828;74.582;2023-03-14T13:36:41;9.10;99.90
35678;DHT22;21791;42.828;74.582;2023-03-14T13:39:13;8.90;99.90
35678;DHT22;21791;42.828;74.582;2023-03-14T13:41:41;8.70;99.90
35678;DHT22;21791;42.828;74.582;2023-03-14T13:44:14;8.50;99.90
35678;DHT22;21791;42.828;74.582;2023-03-14T13:46:41;8.30;99.90
35678;DHT22;21791;42.828;74.582;2023-03-14T13:49:13;8.20;99.90
35678;DHT22;21791;42.828;74.582;2023-03-14T13:51:44;8.00;99.90
35678;DHT22;21791;42.828;74.582;2023-03-14T13:54:16;7.80;99.90
35678;DHT22;21791;42.828;74.582;2023-03-14T13:56:44;7.60;99.90
35678;DHT22;21791;42.828;74.582;2023-03-14T13:59:28;7.50;99.90
35678;DHT22;21791;42.828;74.582;2023-03-14T14:01:56;7.40;99.90
35678;DHT22;21791;42.828;74.582;2023-03-14T14:04:24;7.40;99.90
35678;DHT22;21791;42.828;74.582;2023-03-14T14:07:09;7.20;99.90
35678;DHT22;21791;42.828;74.582;2023-03-14T14:09:40;7.10;99.90
35678;DHT22;21791;42.828;74.582;2023-03-14T14:12:27;7.10;99.90
35678;DHT22;21791;42.828;74.582;2023-03-14T14:15:00;7.40;99.90
35678;DHT22;21791;42.828;74.582;2023-03-14T14:20:07;7.80;99.90
35678;DHT22;21791;42.828;74.582;2023-03-14T14:22:34;7.90;99.90
35678;DHT22;21791;42.828;74.582;2023-03-14T14:25:02;7.70;99.90
35678;DHT22;21791;42.828;74.582;2023-03-14T14:27:35;7.80;99.90
35678;DHT22;21791;42.828;74.582;2023-03-14T14:32:50;7.60;99.90
35678;DHT22;21791;42.828;74.582;2023-03-14T14:35:32;7.40;99.90
35678;DHT22;21791;42.828;74.582;2023-03-14T14:37:59;7.20;99.90
35678;DHT22;21791;42.828;74.582;2023-03-14T14:40:27;7.20;99.90
35678;DHT22;21791;42.828;74.582;2023-03-14T14:43:01;7.20;99.90
35678;DHT22;21791;42.828;74.582;2023-03-14T14:45:28;7.20;99.90
35678;DHT22;21791;42.828;74.582;2023-03-14T14:48:08;7.30;99.90
35678;DHT22;21791;42.828;74.582;2023-03-14T14:53:44;7.30;99.90
35678;DHT22;21791;42.828;74.582;2023-03-14T14:56:25;7.20;99.90
35678;DHT22;21791;42.828;74.582;2023-03-14T14:58:58;7.20;99.90
35678;DHT22;21791;42.828;74.582;2023-03-14T15:01:36;7.10;99.90
35678;DHT22;21791;42.828;74.582;2023-03-14T15:04:21;7.00;99.90
35678;DHT22;21791;42.828;74.582;2023-03-14T15:06:49;7.00;99.90
35678;DHT22;21791;42.828;74.582;2023-03-14T15:09:17;7.00;99.90
35678;DHT22;21791;42.828;74.582;2023-03-14T15:11:44;6.90;99.90
35678;DHT22;21791;42.828;74.582;2023-03-14T15:14:11;6.70;99.90
35678;DHT22;21791;42.828;74.582;2023-03-14T15:16:38;6.60;99.90
35678;DHT22;21791;42.828;74.582;2023-03-14T15:19:31;6.60;99.90
35678;DHT22;21791;42.828;74.582;2023-03-14T15:21:59;7.00;99.90
35678;DHT22;21791;42.828;74.582;2023-03-14T15:24:25;7.20;99.90
35678;DHT22;21791;42.828;74.582;2023-03-14T15:26:52;7.40;99.90
35678;DHT22;21791;42.828;74.582;2023-03-14T15:29:18;7.50;99.90
35678;DHT22;21791;42.828;74.582;2023-03-14T15:31:45;7.50;99.90
35678;DHT22;21791;42.828;74.582;2023-03-14T15:34:12;7.70;99.90
35678;DHT22;21791;42.828;74.582;2023-03-14T15:36:39;7.80;99.90
35678;DHT22;21791;42.828;74.582;2023-03-14T15:39:06;7.80;99.90
35678;DHT22;21791;42.828;74.582;2023-03-14T15:41:33;7.80;99.90
35678;DHT22;21791;42.828;74.582;2023-03-14T15:44:00;7.90;99.90
35678;DHT22;21791;42.828;74.582;2023-03-14T15:46:26;8.00;99.90
35678;DHT22;21791;42.828;74.582;2023-03-14T15:48:53;8.00;99.90
35678;DHT22;21791;42.828;74.582;2023-03-14T15:51:19;8.10;99.90
35678;DHT22;21791;42.828;74.582;2023-03-14T15:53:46;8.00;99.90
35678;DHT22;21791;42.828;74.582;2023-03-14T15:56:17;7.90;99.90
35678;DHT22;21791;42.828;74.582;2023-03-14T15:58:45;7.80;99.90
35678;DHT22;21791;42.828;74.582;2023-03-14T16:01:15;7.70;99.90
35678;DHT22;21791;42.828;74.582;2023-03-14T16:03:43;7.60;99.90
35678;DHT22;21791;42.828;74.582;2023-03-14T16:06:12;7.50;99.90
35678;DHT22;21791;42.828;74.582;2023-03-14T16:08:38;7.60;99.90
35678;DHT22;21791;42.828;74.582;2023-03-14T16:11:05;7.60;99.90
35678;DHT22;21791;42.828;74.582;2023-03-14T16:13:32;7.60;99.90
35678;DHT22;21791;42.828;74.582;2023-03-14T16:16:03;7.50;99.90
35678;DHT22;21791;42.828;74.582;2023-03-14T16:18:32;7.50;99.90
35678;DHT22;21791;42.828;74.582;2023-03-14T16:21:13;7.40;99.90
35678;DHT22;21791;42.828;74.582;2023-03-14T16:23:40;7.40;99.90
35678;DHT22;21791;42.828;74.582;2023-03-14T16:26:12;7.30;99.90
35678;DHT22;21791;42.828;74.582;2023-03-14T16:28:41;7.20;99.90
35678;DHT22;21791;42.828;74.582;2023-03-14T16:31:09;7.10;99.90
35678;DHT22;21791;42.828;74.582;2023-03-14T16:33:37;6.90;99.90
35678;DHT22;21791;42.828;74.582;2023-03-14T16:36:06;6.80;99.90
35678;DHT22;21791;42.828;74.582;2023-03-14T16:38:34;6.60;99.90
35678;DHT22;21791;42.828;74.582;2023-03-14T16:41:07;6.60;99.90
35678;DHT22;21791;42.828;74.582;2023-03-14T16:43:34;6.40;99.90
35678;DHT22;21791;42.828;74.582;2023-03-14T16:46:06;6.30;99.90
35678;DHT22;21791;42.828;74.582;2023-03-14T16:48:33;6.40;99.90
35678;DHT22;21791;42.828;74.582;2023-03-14T16:50:59;6.30;99.90
35678;DHT22;21791;42.828;74.582;2023-03-14T16:53:26;6.30;99.90